Bramble, Montserrat

5:35 PM AST on July 22, 2014 (GMT -0400)
JOHN OSBORNE AP (TRPG) Elev 551 ft | 16.79 °N, 62.19 °W | Change Station

Current weather conditions updated 35 minutes ago

Scattered Clouds
Scattered Clouds
82 °F
Feels Like 87 °F
N
17
Wind Variable Wind from ESE

Tomorrow is forecast to be Cooler than today.

Today
High -- | Low -- °F
--% Chance of Precip.
Yesterday
High -- | Low -- °F
Precip. -- in
5:45 AM 6:44 PM
Waning Crescent, 15% visible
Pressure 30.04 in
Visibility 6.2 miles
Clouds Scattered Clouds 2100 ft
Heat Index 87 °F
Dew Point 72 °F
Humidity 70%
Rainfall 0.00 in
Snow Depth Not available.
UV 2 out of 12
Pollen Not available.
Air Quality Not available.
Flu Activity Not available.
METAR TRPG 222100Z 11015KT 9999 SCT021 28/22 Q1017

More Conditions Fewer Conditions

Pressure 30.04 in
Visibility 6.2 miles
Clouds Scattered Clouds 2100 ft
Heat Index 87 °F
Dew Point 72 °F
Humidity 70%
Rainfall 0.00 in
Snow Depth Not available.
UV 2 out of 12
Pollen Not available.
Air Quality Not available.
Flu Activity Not available.
METAR TRPG 222100Z 11015KT 9999 SCT021 28/22 Q1017

More Conditions Fewer Conditions

10-Day Weather Forecast

Almanac

Astronomy

Jul. 22, 2014 Rise Set
Actual Time 5:45 AM AST 6:44 PM AST
Civil Twilight 5:22 AM AST 7:07 PM AST
Nautical Twilight 4:55 AM AST 7:35 PM AST
Astronomical Twilight 4:26 AM AST 8:03 PM AST
Moon 2:10 AM AST 3:21 PM AST
Length of Visible Light 13h 44m
Length of Day
12h 58m
Tomorrow will be 0m 35s shorter.
Waning Crescent, 15% of the Moon is Illuminated
Today
Waning Crescent
Jul 26
New
Aug 3
First Quarter
Aug 10
Full
Aug 17
Last Quarter

Today's Extremes

Country Highs Country Lows

Community

WunderPhotos

Upload Photos

1,736,360 photos uploaded!

Nearby

Snow Depth

Not available.

Earthquake Activity

City Distance Mag. Time & Date
No recent earthquake activity has been reported nearby.
Minimum magnitude displayed is 2.5.

Coastal Water Temperatures

Place Temperature
No Stations Reporting

Nearby Weather Stations

There are no personal weather stations in this area.